Time;durP1;ratioP1;P1;durP2;ratioP2;P2;SDS_P1;SDS_P2;PMS_P1;PMS_P2;Temp;Humidity;BMP_temperature;BMP_pressure;BME280_temperature;BME280_humidity;BME280_pressure;Samples;Min_cycle;Max_cycle;Signal;HPM_P1;HPM_P2
2021/03/22 00:07:37;;;;;;;10.83;6.97;;;;;;;-3.06;82.52;99097.20;511332;1100;114184;-67
2021/03/22 00:17:41;;;;;;;16.20;6.30;;;;;;;-3.17;82.22;99096.52;511302;1100;114516;-68
2021/03/22 00:27:45;;;;;;;12.27;5.83;;;;;;;-3.25;82.07;99110.31;511042;1102;114464;-68
2021/03/22 00:37:48;;;;;;;14.95;7.20;;;;;;;-3.38;82.19;99098.54;510917;1100;115063;-67
2021/03/22 00:47:52;;;;;;;11.40;5.63;;;;;;;-3.52;82.61;99109.00;511090;1102;114123;-68
2021/03/22 00:57:56;;;;;;;14.95;9.05;;;;;;;-3.56;82.77;99105.66;511187;1100;114752;-68
2021/03/22 01:08:00;;;;;;;17.67;6.77;;;;;;;-3.70;83.14;99108.41;511319;1101;114109;-66
2021/03/22 01:18:05;;;;;;;16.57;8.83;;;;;;;-3.77;82.96;99103.38;511162;1100;114401;-67
2021/03/22 01:28:11;;;;;;;13.20;6.13;;;;;;;-3.85;83.09;99108.63;511257;1102;114101;-67
2021/03/22 01:38:14;;;;;;;11.77;6.97;;;;;;;-3.91;82.37;99108.69;511188;1102;114065;-68
2021/03/22 01:48:17;;;;;;;11.67;6.53;;;;;;;-4.01;83.21;99103.66;510718;1100;114526;-69
2021/03/22 01:58:21;;;;;;;12.13;4.57;;;;;;;-4.08;83.18;99115.72;511128;1102;114203;-68
2021/03/22 02:08:28;;;;;;;12.43;6.17;;;;;;;-4.19;83.15;99114.98;511014;1102;114225;-67
2021/03/22 02:18:41;;;;;;;9.45;5.85;;;;;;;-4.32;83.58;99119.42;511090;1101;114493;-69
2021/03/22 02:29:19;;;;;;;11.20;5.47;;;;;;;-4.40;84.21;99121.22;511124;1099;114164;-67
2021/03/22 02:39:22;;;;;;;15.23;6.37;;;;;;;-4.40;82.95;99134.86;511018;1102;114408;-68
2021/03/22 02:49:29;;;;;;;15.80;6.53;;;;;;;-4.54;83.65;99142.71;510982;1100;114361;-66
2021/03/22 02:59:37;;;;;;;13.55;7.40;;;;;;;-4.59;84.09;99154.70;511435;1100;114237;-68
2021/03/22 03:09:41;;;;;;;10.20;5.65;;;;;;;-4.80;83.31;99164.27;511052;1100;114183;-69
2021/03/22 03:19:45;;;;;;;13.90;6.53;;;;;;;-5.12;83.46;99170.51;511132;1102;114537;-67
2021/03/22 03:29:48;;;;;;;12.53;6.93;;;;;;;-5.35;84.01;99178.31;511185;1100;114669;-67
2021/03/22 03:39:51;;;;;;;12.60;7.30;;;;;;;-5.57;83.14;99183.55;511227;1102;115243;-69
2021/03/22 03:49:54;;;;;;;13.57;7.33;;;;;;;-5.77;83.46;99192.19;510967;1102;114917;-67
2021/03/22 03:59:57;;;;;;;16.37;7.00;;;;;;;-5.95;82.95;99194.79;510688;1101;114518;-69
2021/03/22 04:10:00;;;;;;;12.15;6.65;;;;;;;-6.12;83.21;99202.54;511346;1101;114214;-69
2021/03/22 04:20:05;;;;;;;16.03;6.57;;;;;;;-6.24;83.44;99213.63;511185;1102;114285;-68
2021/03/22 04:30:11;;;;;;;13.10;6.97;;;;;;;-6.35;83.30;99213.66;510901;1100;114366;-68
2021/03/22 04:40:18;;;;;;;20.70;11.10;;;;;;;-6.37;83.12;99210.25;511023;1102;115188;-67
2021/03/22 04:50:24;;;;;;;35.10;20.67;;;;;;;-6.25;83.62;99209.37;511027;1100;115310;-70
2021/03/22 05:00:32;;;;;;;47.17;25.33;;;;;;;-5.97;84.36;99209.30;511024;1101;114877;-71
2021/03/22 05:10:42;;;;;;;31.07;19.23;;;;;;;-5.40;83.86;99236.37;510745;1102;114578;-71
2021/03/22 05:20:49;;;;;;;33.10;17.00;;;;;;;-4.79;84.74;99227.48;510991;1102;114879;-68
2021/03/22 05:30:52;;;;;;;21.63;12.73;;;;;;;-3.64;83.98;99229.80;511150;1100;114481;-69
2021/03/22 05:40:58;;;;;;;21.13;13.10;;;;;;;-0.76;82.79;99249.73;510952;1099;115281;-66
2021/03/22 05:51:25;;;;;;;23.85;12.53;;;;;;;-1.13;80.36;99258.28;510770;1102;114415;-70
2021/03/22 06:01:37;;;;;;;22.27;15.57;;;;;;;-1.07;80.18;99265.87;511029;1102;114206;-67
2021/03/22 06:11:59;;;;;;;27.67;16.13;;;;;;;-0.76;79.60;99279.80;510864;1100;115272;-68
2021/03/22 06:22:05;;;;;;;21.47;14.37;;;;;;;-0.26;79.80;99292.41;510967;1101;114961;-69
2021/03/22 06:32:15;;;;;;;26.63;16.90;;;;;;;0.66;78.95;99298.63;510909;1100;114910;-67
2021/03/22 06:42:22;;;;;;;15.70;11.07;;;;;;;1.91;77.28;99295.75;511540;1101;114506;-67
2021/03/22 06:52:39;;;;;;;24.73;13.37;;;;;;;3.07;75.90;99308.11;511286;1100;114124;-65
2021/03/22 07:02:45;;;;;;;19.30;11.60;;;;;;;4.41;73.65;99314.02;511123;1100;115031;-66
2021/03/22 07:13:06;;;;;;;20.60;13.20;;;;;;;6.95;71.29;99315.03;510715;1100;114148;-68
2021/03/22 07:23:39;;;;;;;21.03;15.03;;;;;;;12.66;67.83;99307.16;510374;1101;114134;-67
2021/03/22 07:33:54;;;;;;;19.65;12.60;;;;;;;16.60;59.57;99301.22;510857;1101;115443;-68
2021/03/22 07:44:16;;;;;;;17.70;11.50;;;;;;;21.21;54.99;99306.34;510817;1101;114785;-68
2021/03/22 07:54:33;;;;;;;14.53;11.90;;;;;;;20.34;51.73;99313.25;510875;1101;114494;-71
2021/03/22 08:04:47;;;;;;;15.40;11.90;;;;;;;23.32;45.02;99306.80;511104;1102;114488;-69
2021/03/22 08:14:58;;;;;;;14.63;12.57;;;;;;;22.34;42.93;99311.23;511104;1102;114590;-71
2021/03/22 08:25:26;;;;;;;19.20;14.90;;;;;;;21.87;42.14;99309.61;510802;1100;114479;-65
2021/03/22 08:35:37;;;;;;;15.67;13.43;;;;;;;24.07;39.06;99327.97;511030;1100;114587;-62
2021/03/22 08:45:50;;;;;;;16.85;14.05;;;;;;;25.45;34.93;99329.20;511162;1100;114536;-61
2021/03/22 08:56:01;;;;;;;18.40;13.80;;;;;;;25.01;34.01;99335.84;511037;1101;114572;-63
2021/03/22 09:06:17;;;;;;;12.97;9.93;;;;;;;17.21;35.15;99347.61;510932;1101;114474;-60
2021/03/22 09:16:41;;;;;;;10.73;7.37;;;;;;;13.69;37.23;99357.99;510816;1102;114388;-66
2021/03/22 09:26:59;;;;;;;10.80;6.60;;;;;;;11.91;37.62;99352.16;511099;1102;114779;-68
2021/03/22 09:37:35;;;;;;;12.25;5.80;;;;;;;10.89;37.48;99358.42;511518;1100;115101;-59
2021/03/22 09:47:40;;;;;;;13.03;7.30;;;;;;;9.92;39.36;99363.11;511236;1102;114772;-73
2021/03/22 09:57:45;;;;;;;8.60;4.00;;;;;;;9.58;39.64;99365.28;511383;1101;115503;-62
2021/03/22 10:08:15;;;;;;;9.30;6.80;;;;;;;8.83;39.90;99356.77;511401;1102;114315;-67
2021/03/22 10:18:29;;;;;;;8.17;4.53;;;;;;;8.29;39.88;99368.61;510842;1102;113813;-66
2021/03/22 10:28:32;;;;;;;6.07;3.57;;;;;;;7.76;40.73;99366.34;513643;1099;114235;-66
2021/03/22 10:38:38;;;;;;;3.17;1.53;;;;;;;6.56;41.63;99372.66;511043;1100;113792;-64
2021/03/22 10:48:43;;;;;;;3.00;1.47;;;;;;;5.93;42.20;99373.14;511102;1102;114417;-64
2021/03/22 10:58:47;;;;;;;4.97;2.27;;;;;;;5.75;43.34;99383.54;510997;1100;114420;-61
2021/03/22 11:08:57;;;;;;;2.87;1.70;;;;;;;5.79;42.77;99374.66;511076;1100;114230;-61
2021/03/22 11:19:09;;;;;;;3.77;1.50;;;;;;;6.55;42.86;99370.14;510432;1100;114649;-65
2021/03/22 11:29:21;;;;;;;6.57;2.17;;;;;;;6.95;41.64;99351.58;511147;1100;114617;-62
2021/03/22 11:39:31;;;;;;;1.17;0.80;;;;;;;6.68;39.97;99360.77;511079;1102;114035;-72
2021/03/22 11:49:40;;;;;;;5.13;1.00;;;;;;;6.65;41.05;99373.12;493542;1101;10001988;-68
2021/03/22 11:59:49;;;;;;;2.37;1.17;;;;;;;6.46;40.02;99361.00;510789;1102;114735;-67
2021/03/22 12:09:53;;;;;;;2.80;1.57;;;;;;;6.41;40.05;99358.66;511029;1101;114613;-66
2021/03/22 12:19:57;;;;;;;3.17;1.43;;;;;;;6.44;40.14;99355.88;510509;1102;114434;-66
2021/03/22 12:30:01;;;;;;;2.00;1.20;;;;;;;5.98;40.01;99364.17;510337;1100;114124;-66
2021/03/22 12:40:08;;;;;;;2.17;1.30;;;;;;;5.66;40.03;99365.73;510319;1100;114119;-65
2021/03/22 12:50:20;;;;;;;2.60;2.30;;;;;;;5.97;41.33;99380.73;510479;1100;113810;-66
2021/03/22 13:00:26;;;;;;;4.47;1.50;;;;;;;6.20;40.31;99389.23;510645;1101;113996;-66
2021/03/22 13:10:32;;;;;;;10.85;2.90;;;;;;;5.50;43.93;99413.34;510530;1102;113872;-65
2021/03/22 13:20:35;;;;;;;3.50;1.70;;;;;;;4.79;44.95;99404.31;510602;1100;113970;-65
2021/03/22 13:30:39;;;;;;;2.07;1.60;;;;;;;4.94;45.79;99394.14;510752;1102;114262;-66
2021/03/22 13:40:43;;;;;;;2.23;1.30;;;;;;;5.03;44.67;99386.78;510610;1102;114274;-66
2021/03/22 13:50:47;;;;;;;2.47;1.80;;;;;;;4.71;44.99;99389.03;510609;1102;113807;-65
2021/03/22 14:00:52;;;;;;;4.63;2.10;;;;;;;4.46;45.76;99392.69;510465;1102;113901;-66
2021/03/22 14:10:57;;;;;;;3.40;1.72;;;;;;;4.96;45.35;99390.56;510805;1100;113941;-67
2021/03/22 14:21:01;;;;;;;4.30;3.07;;;;;;;5.47;45.21;99393.48;510547;1102;114283;-66
2021/03/22 14:31:58;;;;;;;6.30;3.30;;;;;;;5.58;44.02;99382.56;470751;1175;64541;-64
2021/03/22 14:42:02;;;;;;;3.65;1.70;;;;;;;5.57;43.05;99382.65;469818;1174;113343;-65
2021/03/22 14:52:07;;;;;;;5.75;1.75;;;;;;;5.10;41.43;99383.89;469471;1174;113028;-64
2021/03/22 15:02:11;;;;;;;5.90;3.30;;;;;;;4.72;41.48;99393.33;469617;1173;113493;-64
2021/03/22 15:12:17;;;;;;;3.47;1.40;;;;;;;4.99;40.79;99390.42;469574;1173;113278;-65
2021/03/22 15:22:21;;;;;;;2.67;1.37;;;;;;;5.21;40.97;99401.66;469376;1173;113822;-63
2021/03/22 15:32:28;;;;;;;3.87;1.43;;;;;;;5.17;40.53;99409.58;470344;1174;114840;-68
2021/03/22 15:42:32;;;;;;;6.00;1.60;;;;;;;5.29;40.77;99410.80;469902;1173;113569;-66
2021/03/22 15:52:35;;;;;;;3.80;1.90;;;;;;;5.21;40.86;99425.91;469448;1174;113444;-71
2021/03/22 16:02:39;;;;;;;3.93;1.90;;;;;;;4.79;41.23;99414.72;469178;1174;113191;-68
2021/03/22 16:12:45;;;;;;;3.50;1.50;;;;;;;4.49;41.30;99425.48;469305;1173;113697;-75
2021/03/22 16:22:48;;;;;;;3.83;2.70;;;;;;;4.20;42.21;99424.95;469830;1174;113510;-74
2021/03/22 16:32:52;;;;;;;3.33;1.73;;;;;;;3.89;42.54;99436.55;469997;1174;113157;-67
2021/03/22 16:42:57;;;;;;;8.93;2.83;;;;;;;3.59;43.04;99452.41;470407;1174;113293;-71
2021/03/22 16:53:02;;;;;;;3.27;1.90;;;;;;;3.33;43.76;99459.39;470663;1174;113257;-70
2021/03/22 17:03:06;;;;;;;3.53;2.33;;;;;;;2.99;44.28;99470.97;470422;1174;113694;-65
2021/03/22 17:13:11;;;;;;;12.70;4.30;;;;;;;2.66;45.13;99488.48;469143;1174;113275;-64
2021/03/22 17:23:15;;;;;;;13.05;5.30;;;;;;;2.38;45.82;99496.31;469805;1173;113869;-63
2021/03/22 17:33:19;;;;;;;13.57;4.80;;;;;;;2.35;46.65;99509.34;469565;1174;113874;-62
2021/03/22 17:43:24;;;;;;;7.83;5.13;;;;;;;2.42;46.90;99512.58;481035;1174;114205;-62
2021/03/22 17:53:28;;;;;;;12.43;6.57;;;;;;;2.45;47.33;99531.48;470004;1173;113279;-64
2021/03/22 18:03:32;;;;;;;14.07;9.43;;;;;;;2.42;47.81;99548.87;470173;1174;114435;-64
2021/03/22 18:13:36;;;;;;;17.67;8.20;;;;;;;2.33;48.19;99547.42;470520;1174;113492;-64
2021/03/22 18:23:40;;;;;;;16.73;9.17;;;;;;;2.19;48.34;99553.88;469954;1173;113927;-63
2021/03/22 18:33:44;;;;;;;19.73;10.93;;;;;;;2.09;49.27;99561.08;470302;1174;114103;-63
2021/03/22 18:43:48;;;;;;;24.10;13.90;;;;;;;1.96;49.49;99563.17;470946;1173;114660;-64
2021/03/22 18:53:51;;;;;;;27.00;14.07;;;;;;;1.82;49.97;99575.67;470355;1173;114406;-63
2021/03/22 19:03:55;;;;;;;27.57;13.87;;;;;;;1.61;50.88;99585.72;469974;1173;114223;-64
2021/03/22 19:13:59;;;;;;;30.27;15.50;;;;;;;1.40;51.97;99597.51;469955;1173;114033;-65
2021/03/22 19:24:05;;;;;;;31.73;17.47;;;;;;;1.24;52.97;99604.81;469252;1174;114671;-64
2021/03/22 19:34:09;;;;;;;47.83;15.80;;;;;;;1.25;54.20;99615.10;469721;1175;114430;-63
2021/03/22 19:44:15;;;;;;;26.80;14.57;;;;;;;1.24;54.56;99609.98;469930;1174;115394;-64
2021/03/22 19:54:19;;;;;;;30.40;16.05;;;;;;;1.16;55.25;99607.59;469993;1174;114224;-64
2021/03/22 20:04:23;;;;;;;27.13;13.87;;;;;;;1.06;55.36;99614.72;469370;1174;113652;-63
2021/03/22 20:14:28;;;;;;;60.30;25.00;;;;;;;1.04;54.88;99626.84;469993;1173;114034;-64
2021/03/22 20:24:32;;;;;;;41.15;21.00;;;;;;;1.08;54.37;99620.70;470171;1174;113871;-66
2021/03/22 20:34:36;;;;;;;37.87;19.17;;;;;;;1.15;55.06;99636.91;469978;1171;113624;-63
2021/03/22 20:44:40;;;;;;;24.10;14.83;;;;;;;1.16;54.97;99636.05;470017;1172;114047;-63
2021/03/22 20:54:45;;;;;;;35.07;17.37;;;;;;;1.23;54.58;99641.92;469966;1171;114375;-64
2021/03/22 21:04:48;;;;;;;24.90;14.25;;;;;;;1.30;54.67;99637.44;470322;1173;114360;-66
2021/03/22 21:14:52;;;;;;;28.33;15.20;;;;;;;1.31;53.81;99629.63;470602;1174;114688;-65
2021/03/22 21:24:56;;;;;;;26.90;13.40;;;;;;;1.38;53.86;99645.84;470508;1170;114188;-62
2021/03/22 21:35:00;;;;;;;30.17;15.87;;;;;;;1.36;54.50;99634.68;469866;1172;114049;-67
2021/03/22 21:45:07;;;;;;;37.63;18.73;;;;;;;1.29;54.21;99636.58;470120;1173;113724;-67
2021/03/22 21:55:12;;;;;;;30.87;15.67;;;;;;;1.18;54.60;99651.52;469776;1173;113956;-63
2021/03/22 22:05:19;;;;;;;48.70;21.37;;;;;;;1.02;54.91;99643.27;453906;1172;20002537;-64
2021/03/22 22:15:25;;;;;;;30.25;17.65;;;;;;;0.90;55.20;99645.26;469901;1172;115876;-64
2021/03/22 22:25:33;;;;;;;33.77;18.33;;;;;;;0.84;55.54;99643.66;469933;1171;115437;-64
2021/03/22 22:35:39;;;;;;;30.30;16.40;;;;;;;0.80;56.15;99634.30;469852;1171;114600;-65
2021/03/22 22:45:43;;;;;;;26.87;15.93;;;;;;;0.76;56.24;99640.43;469742;1172;113856;-65
2021/03/22 22:55:46;;;;;;;28.67;15.30;;;;;;;0.73;56.83;99647.40;469480;1171;113994;-65
2021/03/22 23:05:51;;;;;;;28.80;14.63;;;;;;;0.72;57.32;99650.88;469581;1173;114796;-65
2021/03/22 23:15:55;;;;;;;34.40;15.65;;;;;;;0.75;57.34;99651.66;469811;1173;115033;-65
2021/03/22 23:26:01;;;;;;;28.50;14.40;;;;;;;0.72;57.47;99646.53;469744;1174;114518;-65
2021/03/22 23:36:08;;;;;;;25.55;14.80;;;;;;;0.76;57.80;99642.15;469705;1173;114605;-66
2021/03/22 23:46:12;;;;;;;27.33;15.25;;;;;;;0.74;58.13;99644.76;470284;1174;114800;-64
2021/03/22 23:56:16;;;;;;;26.93;14.13;;;;;;;0.74;58.83;99641.34;469752;1172;113935;-65
